DEVEE EDHL-EDWW
Flight info
| Callsign | DEVEE |
|---|---|
| Flight time | N/A |
| Altitude | |
| Route | |
| Aircraft | C152 |
Departure
| Time | 2026-04-27 20:40 |
|---|---|
| Airport | Lübeck Blankensee Airport (EDHL) |
Arrival
| Time | N/A |
|---|---|
| Airport | EDWW |
| Time | Latitude | Longitude | Altitude | Speed | Heading |
|---|---|---|---|---|---|
| 2026-04-27 20:36 | 53.79433 | 10.64083 | 930 ft | 48 kts | 110° |
| 2026-04-27 20:36 | 53.79308 | 10.64592 | 825 ft | 44 kts | 92° |
| 2026-04-27 20:37 | 53.79287 | 10.65106 | 785 ft | 45 kts | 81° |
| 2026-04-27 20:37 | 53.79358 | 10.65641 | 745 ft | 50 kts | 70° |
| 2026-04-27 20:37 | 53.79473 | 10.66197 | 707 ft | 50 kts | 63° |
| 2026-04-27 20:37 | 53.79584 | 10.66756 | 661 ft | 50 kts | 70° |
| 2026-04-27 20:38 | 53.79687 | 10.67305 | 635 ft | 50 kts | 67° |
| 2026-04-27 20:38 | 53.79825 | 10.67872 | 569 ft | 55 kts | 69° |
| 2026-04-27 20:38 | 53.79924 | 10.68499 | 494 ft | 58 kts | 72° |
| 2026-04-27 20:38 | 53.80011 | 10.69169 | 342 ft | 57 kts | 72° |
| 2026-04-27 20:39 | 53.80132 | 10.69806 | 231 ft | 57 kts | 68° |
| 2026-04-27 20:39 | 53.80252 | 10.70438 | 117 ft | 56 kts | 69° |
| 2026-04-27 20:39 | 53.80358 | 10.71010 | 58 ft | 41 kts | 69° |
| 2026-04-27 20:39 | 53.80458 | 10.71453 | 77 ft | 47 kts | 67° |
| 2026-04-27 20:40 | 53.80571 | 10.72046 | 128 ft | 62 kts | 68° |
| 2026-04-27 20:40 | 53.80730 | 10.72794 | 260 ft | 70 kts | 66° |
| 2026-04-27 20:40 | 53.81015 | 10.73411 | 493 ft | 68 kts | 17° |
| 2026-04-27 20:40 | 53.81475 | 10.73187 | 686 ft | 74 kts | 313° |
| 2026-04-27 20:41 | 53.81551 | 10.72272 | 812 ft | 88 kts | 264° |
| 2026-04-27 20:41 | 53.81394 | 10.71198 | 883 ft | 99 kts | 253° |
| 2026-04-27 20:41 | 53.81142 | 10.70090 | 976 ft | 101 kts | 243° |
| 2026-04-27 20:41 | 53.80771 | 10.69413 | 1218 ft | 67 kts | 186° |
| 2026-04-27 20:42 | 53.80366 | 10.69378 | 1020 ft | 59 kts | 144° |
| 2026-04-27 20:42 | 53.80152 | 10.69982 | 359 ft | 71 kts | 71° |
| 2026-04-27 20:42 | 53.80301 | 10.70709 | 55 ft | 50 kts | 69° |
| 2026-04-27 20:42 | 53.80379 | 10.71087 | 56 ft | 26 kts | 71° |
| 2026-04-27 20:43 | 53.80422 | 10.71337 | 58 ft | 23 kts | 72° |
| 2026-04-27 20:43 | 53.80478 | 10.71638 | 54 ft | 27 kts | 71° |
| 2026-04-27 20:43 | 53.80540 | 10.71931 | 53 ft | 24 kts | 50° |
| 2026-04-27 20:43 | 53.80597 | 10.71932 | 54 ft | 5 kts | 263° |
| 2026-04-27 20:44 | 53.80632 | 10.71753 | 56 ft | 28 kts | 293° |
| 2026-04-27 20:44 | 53.80603 | 10.71285 | 55 ft | 52 kts | 255° |
| 2026-04-27 20:44 | 53.80511 | 10.70769 | 54 ft | 41 kts | 254° |
| 2026-04-27 20:44 | 53.80453 | 10.70452 | 55 ft | 16 kts | 267° |
| 2026-04-27 20:45 | 53.80534 | 10.70349 | 55 ft | 29 kts | 338° |
| 2026-04-27 20:45 | 53.80597 | 10.70436 | 55 ft | 13 kts | 110° |
| 2026-04-27 20:45 | 53.80549 | 10.70470 | 55 ft | 0 kts | 140° |